Time;durP1;ratioP1;P1;durP2;ratioP2;P2;SDS_P1;SDS_P2;PMS_P1;PMS_P2;Temp;Humidity;BMP_temperature;BMP_pressure;BME280_temperature;BME280_humidity;BME280_pressure;Samples;Min_cycle;Max_cycle;Signal;HPM_P1;HPM_P2
2023/08/06 00:00:28;;;;;;;8.50;4.63;;;;;;;;;;5052084;28;20135;-63
2023/08/06 00:02:55;;;;;;;7.90;4.45;;;;;;;;;;5050312;28;20199;-63
2023/08/06 00:05:22;;;;;;;6.82;4.20;;;;;;;;;;5051890;28;20041;-63
2023/08/06 00:07:49;;;;;;;8.07;4.63;;;;;;;;;;5053721;28;20051;-61
2023/08/06 00:10:16;;;;;;;6.60;4.20;;;;;;;;;;5053434;28;20067;-63
2023/08/06 00:12:42;;;;;;;7.95;4.40;;;;;;;;;;5051114;28;20044;-63
2023/08/06 00:15:09;;;;;;;7.18;4.57;;;;;;;;;;5050358;28;20129;-63
2023/08/06 00:17:36;;;;;;;8.20;4.10;;;;;;;;;;5052069;28;20127;-63
2023/08/06 00:20:04;;;;;;;9.52;4.15;;;;;;;;;;5051859;28;20112;-65
2023/08/06 00:22:32;;;;;;;7.88;4.15;;;;;;;;;;5051394;28;20040;-61
2023/08/06 00:24:58;;;;;;;8.32;4.53;;;;;;;;;;5049891;28;20130;-61
2023/08/06 00:27:25;;;;;;;8.30;4.45;;;;;;;;;;5052153;28;20047;-63
2023/08/06 00:29:52;;;;;;;7.68;4.20;;;;;;;;;;5050921;28;20045;-63
2023/08/06 00:32:19;;;;;;;7.90;4.43;;;;;;;;;;5050143;28;20670;-63
2023/08/06 00:34:45;;;;;;;6.88;4.35;;;;;;;;;;5049769;28;20476;-61
2023/08/06 00:37:12;;;;;;;8.45;4.63;;;;;;;;;;5050829;28;20064;-62
2023/08/06 00:39:39;;;;;;;7.35;3.92;;;;;;;;;;5050823;28;20033;-63
2023/08/06 00:42:05;;;;;;;7.97;4.90;;;;;;;;;;5051717;28;20048;-63
2023/08/06 00:44:32;;;;;;;6.95;4.53;;;;;;;;;;5048693;28;20044;-64
2023/08/06 00:46:59;;;;;;;8.23;4.88;;;;;;;;;;5050832;28;20221;-62
2023/08/06 00:49:25;;;;;;;13.20;5.30;;;;;;;;;;5049614;28;20101;-61
2023/08/06 00:51:52;;;;;;;8.18;4.65;;;;;;;;;;5051910;28;20037;-62
2023/08/06 00:54:19;;;;;;;7.82;4.43;;;;;;;;;;5056530;28;20045;-63
2023/08/06 00:56:46;;;;;;;7.72;4.45;;;;;;;;;;5053002;28;20040;-62
2023/08/06 00:59:13;;;;;;;7.63;4.38;;;;;;;;;;5050445;28;20033;-62
2023/08/06 01:01:39;;;;;;;7.60;4.78;;;;;;;;;;5049054;28;20072;-63
2023/08/06 01:04:06;;;;;;;8.65;4.35;;;;;;;;;;5051628;28;20163;-63
2023/08/06 01:06:41;;;;;;;7.45;3.90;;;;;;;;;;5048032;28;20051;-63
2023/08/06 01:09:20;;;;;;;9.70;4.20;;;;;;;;;;5049944;28;20315;-61
2023/08/06 01:11:53;;;;;;;7.93;4.35;;;;;;;;;;5048678;28;20041;-62
2023/08/06 01:14:24;;;;;;;10.25;4.50;;;;;;;;;;5049296;28;20052;-63
2023/08/06 01:16:52;;;;;;;7.80;4.20;;;;;;;;;;5048020;28;20155;-63
2023/08/06 01:19:18;;;;;;;7.85;4.32;;;;;;;;;;5050694;28;20078;-63
2023/08/06 01:21:45;;;;;;;8.20;4.57;;;;;;;;;;5050782;28;20033;-62
2023/08/06 01:24:12;;;;;;;8.13;4.57;;;;;;;;;;5052000;28;20037;-63
2023/08/06 01:26:49;;;;;;;9.23;4.18;;;;;;;;;;5047728;28;20811;-63
2023/08/06 01:29:16;;;;;;;7.97;4.35;;;;;;;;;;5048537;28;20044;-65
2023/08/06 01:31:43;;;;;;;7.40;4.53;;;;;;;;;;5049990;28;20040;-62
2023/08/06 01:34:16;;;;;;;7.15;4.57;;;;;;;;;;5050502;28;20494;-62
2023/08/06 01:36:43;;;;;;;8.13;4.70;;;;;;;;;;5049297;28;20040;-63
2023/08/06 01:39:10;;;;;;;9.93;4.93;;;;;;;;;;5066578;28;20374;-63
2023/08/06 01:41:36;;;;;;;7.60;5.10;;;;;;;;;;5048005;28;20420;-62
2023/08/06 01:44:03;;;;;;;9.93;5.18;;;;;;;;;;5054993;28;20139;-61
2023/08/06 01:46:29;;;;;;;10.00;4.70;;;;;;;;;;5049576;28;20523;-64
2023/08/06 01:48:59;;;;;;;9.07;5.25;;;;;;;;;;5046795;28;20040;-63
2023/08/06 01:51:26;;;;;;;7.25;4.38;;;;;;;;;;5047419;28;20438;-64
2023/08/06 01:53:53;;;;;;;10.43;6.55;;;;;;;;;;5056725;28;20037;-63
2023/08/06 01:56:20;;;;;;;8.25;4.80;;;;;;;;;;5057314;28;20059;-63
2023/08/06 01:58:46;;;;;;;9.05;5.40;;;;;;;;;;5049251;28;20052;-64
2023/08/06 02:01:13;;;;;;;8.45;5.18;;;;;;;;;;5050958;28;20448;-62
2023/08/06 02:03:40;;;;;;;7.85;4.55;;;;;;;;;;5048291;28;20468;-63
2023/08/06 02:06:06;;;;;;;9.13;4.88;;;;;;;;;;5049970;28;20090;-65
2023/08/06 02:08:33;;;;;;;8.73;4.88;;;;;;;;;;5046825;28;20109;-60
2023/08/06 02:11:00;;;;;;;10.43;5.35;;;;;;;;;;5049435;28;20037;-61
2023/08/06 02:13:26;;;;;;;8.70;4.85;;;;;;;;;;5050462;28;20041;-65
2023/08/06 02:15:53;;;;;;;10.60;4.85;;;;;;;;;;5050444;28;20041;-64
2023/08/06 02:18:21;;;;;;;9.40;4.95;;;;;;;;;;5045835;28;20055;-62
2023/08/06 02:20:58;;;;;;;10.32;4.75;;;;;;;;;;5049319;28;20037;-63
2023/08/06 02:23:25;;;;;;;8.35;5.00;;;;;;;;;;5046741;28;20048;-63
2023/08/06 02:26:04;;;;;;;7.88;5.18;;;;;;;;;;5049749;28;20037;-64
2023/08/06 02:28:32;;;;;;;11.23;5.40;;;;;;;;;;5049698;28;20108;-63
2023/08/06 02:30:58;;;;;;;8.27;5.05;;;;;;;;;;5050627;28;20055;-63
2023/08/06 02:33:25;;;;;;;9.10;5.07;;;;;;;;;;5054825;28;20040;-64
2023/08/06 02:35:52;;;;;;;8.40;4.82;;;;;;;;;;5048386;28;20572;-64
2023/08/06 02:38:18;;;;;;;8.85;4.97;;;;;;;;;;5049037;28;20421;-62
2023/08/06 02:40:48;;;;;;;9.43;5.15;;;;;;;;;;5061677;28;20033;-62
2023/08/06 02:43:14;;;;;;;10.68;5.15;;;;;;;;;;5051637;28;20074;-63
2023/08/06 02:45:41;;;;;;;10.55;5.40;;;;;;;;;;5049710;28;20044;-62
2023/08/06 02:48:09;;;;;;;7.80;5.00;;;;;;;;;;5050138;28;20052;-62
2023/08/06 02:50:40;;;;;;;9.93;5.75;;;;;;;;;;5048925;28;20118;-62
2023/08/06 02:53:26;;;;;;;10.18;5.13;;;;;;;;;;5055789;28;20150;-63
2023/08/06 02:55:52;;;;;;;12.40;5.28;;;;;;;;;;5055086;28;20202;-63
2023/08/06 02:58:22;;;;;;;9.25;5.53;;;;;;;;;;5055941;28;20573;-62
2023/08/06 03:01:02;;;;;;;11.00;6.18;;;;;;;;;;5053669;28;20045;-62
2023/08/06 03:03:30;;;;;;;16.75;8.93;;;;;;;;;;5040353;28;20037;-62
2023/08/06 03:05:56;;;;;;;16.33;9.65;;;;;;;;;;5044703;28;20535;-61
2023/08/06 03:08:23;;;;;;;16.15;9.45;;;;;;;;;;5026508;28;20028;-62
2023/08/06 03:10:50;;;;;;;18.52;7.97;;;;;;;;;;5048682;28;20399;-62
2023/08/06 03:13:17;;;;;;;17.25;9.93;;;;;;;;;;5046374;28;20123;-62
2023/08/06 03:15:44;;;;;;;16.27;7.88;;;;;;;;;;5043616;28;20044;-61
2023/08/06 03:18:11;;;;;;;12.20;6.68;;;;;;;;;;5043833;28;20044;-62
2023/08/06 03:20:37;;;;;;;12.25;6.65;;;;;;;;;;5046586;28;22807;-62
2023/08/06 03:23:04;;;;;;;13.57;6.90;;;;;;;;;;5047376;28;20047;-62
2023/08/06 03:25:30;;;;;;;15.27;6.43;;;;;;;;;;5047192;28;20284;-63
2023/08/06 03:27:57;;;;;;;12.23;6.32;;;;;;;;;;5047895;28;20535;-62
2023/08/06 03:30:23;;;;;;;12.07;6.47;;;;;;;;;;5046074;28;20123;-64
2023/08/06 03:32:50;;;;;;;16.67;7.68;;;;;;;;;;5045702;28;20537;-63
2023/08/06 03:35:17;;;;;;;14.02;7.50;;;;;;;;;;5046156;28;20033;-64
2023/08/06 03:37:44;;;;;;;14.68;7.20;;;;;;;;;;5027584;28;20056;-64
2023/08/06 03:40:11;;;;;;;11.93;7.50;;;;;;;;;;5043755;28;20675;-63
2023/08/06 03:42:37;;;;;;;11.02;6.65;;;;;;;;;;5046519;28;20037;-62
2023/08/06 03:45:04;;;;;;;13.80;6.95;;;;;;;;;;5042452;28;20105;-63
2023/08/06 03:47:31;;;;;;;10.20;5.90;;;;;;;;;;5043379;28;20036;-63
2023/08/06 03:49:57;;;;;;;14.57;6.95;;;;;;;;;;5042828;28;20048;-64
2023/08/06 03:52:24;;;;;;;11.45;6.85;;;;;;;;;;5042580;28;20040;-63
2023/08/06 03:54:51;;;;;;;11.57;6.72;;;;;;;;;;5045658;28;20056;-63
2023/08/06 03:57:18;;;;;;;13.55;7.32;;;;;;;;;;5044423;28;20135;-62
2023/08/06 03:59:44;;;;;;;10.48;6.55;;;;;;;;;;5041566;28;20033;-63
2023/08/06 04:02:11;;;;;;;12.68;6.57;;;;;;;;;;5044212;28;20079;-63
2023/08/06 04:04:37;;;;;;;12.15;6.60;;;;;;;;;;5045392;28;20051;-64
2023/08/06 04:07:04;;;;;;;15.10;7.30;;;;;;;;;;5042188;28;20108;-61
2023/08/06 04:09:31;;;;;;;11.60;6.80;;;;;;;;;;5041970;28;20942;-63
2023/08/06 04:11:58;;;;;;;14.68;7.45;;;;;;;;;;5041961;28;20040;-64
2023/08/06 04:14:27;;;;;;;11.18;7.10;;;;;;;;;;5042752;28;20041;-64
2023/08/06 04:16:53;;;;;;;11.57;6.82;;;;;;;;;;5044126;28;20056;-62
2023/08/06 04:19:20;;;;;;;12.07;6.78;;;;;;;;;;5043180;28;20044;-62
2023/08/06 04:21:47;;;;;;;11.77;7.50;;;;;;;;;;5043000;28;20202;-64
2023/08/06 04:24:14;;;;;;;13.63;7.43;;;;;;;;;;5044771;28;20045;-63
2023/08/06 04:26:41;;;;;;;11.80;7.43;;;;;;;;;;5044545;28;20052;-62
2023/08/06 04:29:07;;;;;;;14.50;7.40;;;;;;;;;;5043123;28;20258;-65
2023/08/06 04:31:34;;;;;;;13.43;7.57;;;;;;;;;;5042745;28;20127;-64
2023/08/06 04:34:01;;;;;;;14.02;6.80;;;;;;;;;;5042713;28;20789;-63
2023/08/06 04:36:28;;;;;;;12.90;7.65;;;;;;;;;;5041644;28;20131;-64
2023/08/06 04:38:55;;;;;;;12.43;6.88;;;;;;;;;;5041192;28;20492;-65
2023/08/06 04:41:21;;;;;;;14.30;7.88;;;;;;;;;;5043485;28;20175;-65
2023/08/06 04:43:48;;;;;;;13.50;7.82;;;;;;;;;;5046884;28;20040;-66
2023/08/06 04:46:14;;;;;;;13.57;8.32;;;;;;;;;;5042223;28;20044;-65
2023/08/06 04:48:41;;;;;;;16.45;8.63;;;;;;;;;;5041537;28;20097;-63
2023/08/06 04:51:08;;;;;;;18.20;8.35;;;;;;;;;;5043289;28;21138;-64
2023/08/06 04:53:34;;;;;;;15.60;8.75;;;;;;;;;;5042616;28;20091;-63
2023/08/06 04:56:01;;;;;;;14.63;8.27;;;;;;;;;;5043090;28;20056;-63
2023/08/06 04:58:27;;;;;;;15.07;8.45;;;;;;;;;;5040633;28;20052;-65
2023/08/06 05:00:54;;;;;;;15.05;7.03;;;;;;;;;;5043566;28;22553;-64
2023/08/06 05:03:21;;;;;;;16.20;8.38;;;;;;;;;;5043039;28;20049;-67
2023/08/06 05:05:47;;;;;;;14.15;7.28;;;;;;;;;;5042714;28;20040;-65
2023/08/06 05:08:17;;;;;;;13.60;7.85;;;;;;;;;;5056316;28;20115;-64
2023/08/06 05:10:44;;;;;;;15.73;7.40;;;;;;;;;;5042063;28;20060;-64
2023/08/06 05:13:11;;;;;;;16.10;7.30;;;;;;;;;;5043120;28;20036;-65
2023/08/06 05:15:39;;;;;;;16.27;7.70;;;;;;;;;;5043091;28;20413;-64
2023/08/06 05:18:06;;;;;;;15.95;8.15;;;;;;;;;;5040374;28;20056;-64
2023/08/06 05:20:37;;;;;;;12.77;8.02;;;;;;;;;;5047163;28;20037;-66
2023/08/06 05:23:03;;;;;;;12.98;7.43;;;;;;;;;;5041425;28;20426;-65
2023/08/06 05:25:30;;;;;;;15.18;8.20;;;;;;;;;;5035092;28;20098;-66
2023/08/06 05:27:57;;;;;;;12.82;7.85;;;;;;;;;;5054777;28;20370;-65
2023/08/06 05:30:25;;;;;;;11.00;7.07;;;;;;;;;;5044308;28;20436;-64
2023/08/06 05:32:52;;;;;;;15.32;7.22;;;;;;;;;;5043175;28;20041;-64
2023/08/06 05:35:18;;;;;;;17.45;7.60;;;;;;;;;;5041865;28;20040;-64
2023/08/06 05:37:45;;;;;;;13.05;7.93;;;;;;;;;;5039318;28;20049;-63
2023/08/06 05:40:12;;;;;;;15.20;7.13;;;;;;;;;;5038817;28;20222;-63
2023/08/06 05:42:38;;;;;;;13.40;7.38;;;;;;;;;;5038069;28;20653;-63
2023/08/06 05:45:05;;;;;;;14.20;7.57;;;;;;;;;;5036943;28;20048;-65
2023/08/06 05:47:31;;;;;;;14.35;8.05;;;;;;;;;;5043272;28;20041;-65
2023/08/06 05:49:58;;;;;;;11.60;7.95;;;;;;;;;;5043368;28;20534;-64
2023/08/06 05:52:25;;;;;;;15.45;8.07;;;;;;;;;;5041959;28;20405;-64
2023/08/06 05:54:51;;;;;;;14.50;8.15;;;;;;;;;;5031013;28;20048;-65
2023/08/06 05:57:18;;;;;;;17.15;8.05;;;;;;;;;;5043944;28;20044;-64
2023/08/06 05:59:45;;;;;;;11.63;6.90;;;;;;;;;;5043339;28;20044;-64
2023/08/06 06:02:11;;;;;;;14.07;7.63;;;;;;;;;;5042945;28;20048;-65
2023/08/06 06:04:38;;;;;;;12.80;7.40;;;;;;;;;;5041372;28;20032;-65
2023/08/06 06:07:05;;;;;;;13.82;7.80;;;;;;;;;;5044999;28;20043;-64
2023/08/06 06:09:32;;;;;;;14.05;7.28;;;;;;;;;;5039748;28;20790;-65
2023/08/06 06:11:58;;;;;;;15.82;8.07;;;;;;;;;;5040076;28;20150;-66
2023/08/06 06:14:25;;;;;;;12.00;6.70;;;;;;;;;;5040111;28;20040;-65
2023/08/06 06:16:53;;;;;;;11.63;6.82;;;;;;;;;;5041054;28;20052;-64
2023/08/06 06:19:19;;;;;;;11.55;7.05;;;;;;;;;;5040687;28;22928;-64
2023/08/06 06:21:46;;;;;;;13.98;7.88;;;;;;;;;;5039948;28;20172;-65
2023/08/06 06:24:12;;;;;;;15.30;7.47;;;;;;;;;;5039780;28;20048;-64
2023/08/06 06:26:40;;;;;;;11.68;7.53;;;;;;;;;;5039443;28;21062;-64
2023/08/06 06:29:06;;;;;;;13.65;6.93;;;;;;;;;;5041837;28;20969;-63
2023/08/06 06:31:33;;;;;;;12.07;7.32;;;;;;;;;;5039116;28;20070;-62
2023/08/06 06:33:59;;;;;;;11.80;7.00;;;;;;;;;;5040244;28;20134;-64
2023/08/06 06:36:26;;;;;;;14.88;8.07;;;;;;;;;;5040315;28;20045;-63
2023/08/06 06:38:53;;;;;;;14.77;8.35;;;;;;;;;;5040372;28;20053;-64
2023/08/06 06:41:19;;;;;;;16.13;8.90;;;;;;;;;;5045335;28;20055;-63
2023/08/06 06:43:46;;;;;;;15.60;8.02;;;;;;;;;;5041800;28;20041;-67
2023/08/06 06:46:12;;;;;;;12.68;8.02;;;;;;;;;;5043152;28;20536;-63
2023/08/06 06:48:39;;;;;;;13.48;7.05;;;;;;;;;;5049482;28;20047;-64
2023/08/06 06:51:06;;;;;;;12.25;7.32;;;;;;;;;;5053301;28;20107;-64
2023/08/06 06:53:33;;;;;;;13.27;7.25;;;;;;;;;;5034784;28;20738;-63
2023/08/06 06:56:03;;;;;;;13.45;7.30;;;;;;;;;;5055484;28;20490;-64
2023/08/06 06:58:30;;;;;;;15.77;7.47;;;;;;;;;;5057733;28;20040;-64
2023/08/06 07:00:57;;;;;;;13.55;7.38;;;;;;;;;;5058948;28;20041;-63
2023/08/06 07:03:24;;;;;;;11.30;7.43;;;;;;;;;;5065217;28;20052;-64
2023/08/06 07:05:50;;;;;;;11.13;7.28;;;;;;;;;;5066489;28;20175;-63
2023/08/06 07:08:17;;;;;;;15.18;7.93;;;;;;;;;;5068935;28;20083;-63
2023/08/06 07:10:44;;;;;;;12.98;8.10;;;;;;;;;;5052045;28;20041;-64
2023/08/06 07:13:11;;;;;;;12.73;7.72;;;;;;;;;;5054804;28;20092;-63
2023/08/06 07:15:37;;;;;;;14.07;8.15;;;;;;;;;;5067623;28;20044;-63
2023/08/06 07:18:04;;;;;;;12.30;7.97;;;;;;;;;;5050713;28;21783;-63
2023/08/06 07:20:32;;;;;;;15.10;8.18;;;;;;;;;;5051546;28;20029;-62
2023/08/06 07:22:59;;;;;;;15.20;8.10;;;;;;;;;;5060053;28;20041;-60
2023/08/06 07:25:26;;;;;;;12.82;7.70;;;;;;;;;;5053358;28;20087;-63
2023/08/06 07:27:53;;;;;;;13.85;8.55;;;;;;;;;;5059927;28;20037;-63
2023/08/06 07:30:20;;;;;;;12.27;8.10;;;;;;;;;;5052177;28;20138;-62
2023/08/06 07:32:46;;;;;;;13.88;8.10;;;;;;;;;;5052881;28;20123;-64
2023/08/06 07:35:14;;;;;;;12.38;7.60;;;;;;;;;;5054126;28;20041;-64
2023/08/06 07:37:40;;;;;;;14.15;8.98;;;;;;;;;;5051731;28;20086;-66
2023/08/06 07:40:08;;;;;;;13.57;7.57;;;;;;;;;;5053541;28;20472;-64
2023/08/06 07:42:35;;;;;;;13.80;7.32;;;;;;;;;;5053303;28;20113;-64
2023/08/06 07:45:02;;;;;;;16.05;7.40;;;;;;;;;;5067755;28;20041;-64
2023/08/06 07:47:29;;;;;;;13.63;7.03;;;;;;;;;;5052693;28;20039;-66
2023/08/06 07:49:56;;;;;;;15.13;7.30;;;;;;;;;;5090276;27;20527;-64
2023/08/06 07:52:22;;;;;;;12.07;7.32;;;;;;;;;;5090176;27;20531;-65
2023/08/06 07:54:49;;;;;;;9.77;6.50;;;;;;;;;;5090185;27;20048;-66
2023/08/06 07:57:16;;;;;;;13.15;7.50;;;;;;;;;;5091421;27;20085;-64
2023/08/06 07:59:43;;;;;;;14.38;7.65;;;;;;;;;;5091279;27;20067;-65
2023/08/06 08:02:09;;;;;;;13.02;6.38;;;;;;;;;;5076011;27;20036;-66
2023/08/06 08:04:36;;;;;;;13.20;6.70;;;;;;;;;;5075677;27;20052;-65
2023/08/06 08:07:02;;;;;;;11.73;7.25;;;;;;;;;;5073236;28;20644;-65
2023/08/06 08:09:29;;;;;;;11.57;6.90;;;;;;;;;;5074971;27;20047;-66
2023/08/06 08:11:56;;;;;;;12.80;7.30;;;;;;;;;;5092284;27;20036;-64
2023/08/06 08:14:22;;;;;;;11.55;6.90;;;;;;;;;;5090201;27;20046;-63
2023/08/06 08:16:49;;;;;;;11.45;7.07;;;;;;;;;;5090526;27;20051;-65
2023/08/06 08:19:16;;;;;;;15.63;7.25;;;;;;;;;;5081519;27;20481;-64
2023/08/06 08:21:43;;;;;;;16.30;7.75;;;;;;;;;;5060050;27;20583;-65
2023/08/06 08:24:10;;;;;;;11.80;7.03;;;;;;;;;;5053761;28;20102;-66
2023/08/06 08:26:37;;;;;;;14.98;7.97;;;;;;;;;;5052419;28;20540;-64
2023/08/06 08:29:03;;;;;;;20.02;7.70;;;;;;;;;;5058502;27;20608;-66
2023/08/06 08:31:30;;;;;;;14.85;8.05;;;;;;;;;;5068421;28;20041;-65
2023/08/06 08:33:58;;;;;;;12.88;7.47;;;;;;;;;;5091818;27;20036;-65
2023/08/06 08:36:25;;;;;;;13.30;7.82;;;;;;;;;;5088287;27;20121;-63
2023/08/06 08:38:53;;;;;;;15.27;8.23;;;;;;;;;;5092208;27;20058;-64
2023/08/06 08:41:21;;;;;;;15.55;8.52;;;;;;;;;;5091037;27;20515;-64
2023/08/06 08:43:49;;;;;;;14.68;7.65;;;;;;;;;;5074633;27;20036;-64
2023/08/06 08:46:16;;;;;;;14.30;8.00;;;;;;;;;;5074862;27;20092;-65
2023/08/06 08:48:43;;;;;;;13.23;7.80;;;;;;;;;;5085274;27;20039;-63
2023/08/06 08:51:11;;;;;;;15.60;8.48;;;;;;;;;;5088454;27;20090;-62
2023/08/06 08:53:39;;;;;;;14.88;8.40;;;;;;;;;;5086225;27;20397;-64
2023/08/06 08:56:06;;;;;;;17.58;8.23;;;;;;;;;;5071021;27;20978;-64
2023/08/06 08:58:33;;;;;;;14.15;8.45;;;;;;;;;;5057665;28;20139;-65
2023/08/06 09:01:00;;;;;;;15.43;8.98;;;;;;;;;;5086968;27;20575;-64
2023/08/06 09:03:27;;;;;;;14.98;9.02;;;;;;;;;;5087219;27;20154;-66
2023/08/06 09:05:55;;;;;;;16.88;9.10;;;;;;;;;;5087689;27;20124;-63
2023/08/06 09:08:25;;;;;;;19.33;8.57;;;;;;;;;;5088305;27;20482;-65
2023/08/06 09:10:52;;;;;;;18.90;9.20;;;;;;;;;;5079562;27;20114;-64
2023/08/06 09:13:20;;;;;;;14.40;8.50;;;;;;;;;;5051383;28;20044;-63
2023/08/06 09:15:46;;;;;;;14.20;8.82;;;;;;;;;;5048949;28;20654;-65
2023/08/06 09:18:13;;;;;;;13.27;8.38;;;;;;;;;;5051682;28;20080;-64
2023/08/06 09:20:40;;;;;;;15.00;8.60;;;;;;;;;;5051571;28;20047;-62
2023/08/06 09:23:10;;;;;;;15.95;8.25;;;;;;;;;;5050181;28;20037;-63
2023/08/06 09:25:40;;;;;;;15.18;8.07;;;;;;;;;;5047512;28;20033;-64
2023/08/06 09:28:25;;;;;;;12.07;6.90;;;;;;;;;;5055121;28;20496;-66
2023/08/06 09:30:55;;;;;;;13.50;7.30;;;;;;;;;;5064607;28;20097;-63
2023/08/06 09:33:23;;;;;;;11.65;7.15;;;;;;;;;;5072043;28;20037;-64
2023/08/06 09:35:50;;;;;;;14.93;7.20;;;;;;;;;;5055409;28;20116;-64
2023/08/06 09:38:17;;;;;;;11.93;6.63;;;;;;;;;;5066919;28;20109;-68
2023/08/06 09:40:44;;;;;;;11.25;6.95;;;;;;;;;;5070272;28;20127;-65
2023/08/06 09:43:13;;;;;;;12.85;6.82;;;;;;;;;;5070459;28;20051;-63
2023/08/06 09:45:40;;;;;;;14.88;7.30;;;;;;;;;;5071150;28;20131;-63
2023/08/06 09:48:08;;;;;;;14.25;7.28;;;;;;;;;;5071215;28;20269;-63
2023/08/06 09:50:36;;;;;;;16.83;7.22;;;;;;;;;;5051136;28;20045;-64
2023/08/06 09:53:04;;;;;;;11.23;7.13;;;;;;;;;;5059239;28;20096;-63
2023/08/06 09:55:31;;;;;;;13.73;6.90;;;;;;;;;;5070032;28;20670;-64
2023/08/06 09:57:58;;;;;;;13.38;7.57;;;;;;;;;;5070177;28;20044;-64
2023/08/06 10:00:25;;;;;;;13.52;7.65;;;;;;;;;;5068713;28;20422;-64
2023/08/06 10:02:56;;;;;;;13.23;7.50;;;;;;;;;;5072910;28;20032;-67
2023/08/06 10:05:40;;;;;;;14.85;8.10;;;;;;;;;;5008723;28;20156;-64
2023/08/06 10:08:07;;;;;;;15.07;7.65;;;;;;;;;;5006608;28;20045;-63
2023/08/06 10:10:35;;;;;;;13.77;7.07;;;;;;;;;;5003334;28;20587;-63
2023/08/06 10:13:02;;;;;;;12.60;7.43;;;;;;;;;;5010156;28;20042;-62
2023/08/06 10:15:32;;;;;;;13.80;7.13;;;;;;;;;;5004508;28;20128;-64
2023/08/06 10:17:59;;;;;;;15.27;7.65;;;;;;;;;;5004843;28;21092;-63
2023/08/06 10:20:26;;;;;;;14.68;7.25;;;;;;;;;;5020465;28;20041;-64
2023/08/06 10:23:03;;;;;;;14.07;7.30;;;;;;;;;;5005139;28;20045;-62
2023/08/06 10:25:34;;;;;;;11.63;6.45;;;;;;;;;;5004878;28;20160;-62
2023/08/06 10:28:00;;;;;;;15.60;6.93;;;;;;;;;;5005533;28;20761;-63
2023/08/06 10:30:34;;;;;;;17.08;6.65;;;;;;;;;;5005144;28;20047;-61
2023/08/06 10:33:01;;;;;;;12.75;7.00;;;;;;;;;;5006404;28;20482;-63
2023/08/06 10:35:32;;;;;;;14.95;7.20;;;;;;;;;;5005757;28;20108;-64
2023/08/06 10:38:00;;;;;;;11.23;6.60;;;;;;;;;;5053889;28;20044;-64
2023/08/06 10:40:27;;;;;;;13.05;6.85;;;;;;;;;;5051000;28;20156;-64
2023/08/06 10:42:53;;;;;;;14.20;7.03;;;;;;;;;;5050625;28;20045;-65
2023/08/06 10:45:51;;;;;;;13.48;6.45;;;;;;;;;;5058718;28;20449;-63
2023/08/06 10:48:30;;;;;;;14.75;6.90;;;;;;;;;;5058609;28;20033;-64
2023/08/06 10:50:57;;;;;;;13.52;7.20;;;;;;;;;;5058256;28;20143;-64
2023/08/06 10:53:24;;;;;;;10.98;6.10;;;;;;;;;;5058181;28;20075;-62
2023/08/06 10:55:50;;;;;;;12.48;6.40;;;;;;;;;;5058795;28;20424;-63
2023/08/06 10:58:17;;;;;;;13.10;6.50;;;;;;;;;;5057905;28;20056;-64
2023/08/06 11:00:44;;;;;;;13.38;7.13;;;;;;;;;;5057308;28;20040;-63
2023/08/06 11:03:10;;;;;;;12.23;6.97;;;;;;;;;;5056273;28;20116;-65
2023/08/06 11:05:37;;;;;;;10.20;6.00;;;;;;;;;;5055127;28;20094;-63
2023/08/06 11:08:03;;;;;;;12.65;6.88;;;;;;;;;;5056365;28;20501;-63
2023/08/06 11:10:30;;;;;;;13.60;6.90;;;;;;;;;;5055297;28;20044;-64
2023/08/06 11:13:02;;;;;;;12.30;6.75;;;;;;;;;;5056192;28;20434;-63
2023/08/06 11:15:29;;;;;;;14.35;6.65;;;;;;;;;;5054581;28;20048;-63
2023/08/06 11:17:55;;;;;;;12.70;6.28;;;;;;;;;;5050446;28;20064;-64
2023/08/06 11:20:22;;;;;;;11.18;5.60;;;;;;;;;;5046919;28;20037;-66
2023/08/06 11:22:49;;;;;;;10.60;6.35;;;;;;;;;;5044571;28;20064;-64
2023/08/06 11:25:15;;;;;;;13.05;6.78;;;;;;;;;;5047668;28;20048;-64
2023/08/06 11:27:42;;;;;;;13.93;6.90;;;;;;;;;;5049007;28;20037;-63
2023/08/06 11:30:11;;;;;;;11.98;6.80;;;;;;;;;;5050226;28;20525;-64
2023/08/06 11:32:48;;;;;;;10.52;6.15;;;;;;;;;;5046656;28;20048;-63
2023/08/06 11:35:18;;;;;;;13.25;6.88;;;;;;;;;;5049447;28;20404;-65
2023/08/06 11:37:48;;;;;;;11.60;6.53;;;;;;;;;;5044205;28;20099;-63
2023/08/06 11:40:17;;;;;;;17.10;6.38;;;;;;;;;;5046910;28;20518;-62
2023/08/06 11:42:47;;;;;;;16.48;6.47;;;;;;;;;;5053961;28;20029;-62
2023/08/06 11:45:14;;;;;;;12.27;6.97;;;;;;;;;;5051254;28;20052;-65
2023/08/06 11:47:40;;;;;;;13.90;7.28;;;;;;;;;;5053479;28;20163;-64
2023/08/06 11:50:07;;;;;;;13.20;6.95;;;;;;;;;;5050773;28;20048;-63
2023/08/06 11:52:34;;;;;;;13.57;6.72;;;;;;;;;;5051806;28;20037;-66
2023/08/06 11:55:07;;;;;;;11.32;6.38;;;;;;;;;;5051818;28;20074;-62
2023/08/06 11:57:38;;;;;;;12.38;6.57;;;;;;;;;;5052466;28;20315;-63
2023/08/06 12:00:08;;;;;;;13.38;6.50;;;;;;;;;;5052415;28;20135;-63
2023/08/06 12:02:36;;;;;;;14.05;6.30;;;;;;;;;;5054375;28;20040;-62
2023/08/06 12:05:13;;;;;;;12.60;6.32;;;;;;;;;;5050736;28;20098;-62
2023/08/06 12:07:42;;;;;;;10.55;6.60;;;;;;;;;;5051197;28;20052;-62
2023/08/06 12:10:09;;;;;;;11.13;6.15;;;;;;;;;;5066848;28;20056;-63
2023/08/06 12:12:36;;;;;;;11.75;6.30;;;;;;;;;;5050792;28;20052;-63
2023/08/06 12:15:04;;;;;;;10.98;6.53;;;;;;;;;;5050504;28;20049;-61
2023/08/06 12:17:31;;;;;;;13.45;6.65;;;;;;;;;;5050867;28;20536;-64
2023/08/06 12:19:57;;;;;;;12.90;5.97;;;;;;;;;;5050392;28;20044;-62
2023/08/06 12:22:24;;;;;;;14.05;7.00;;;;;;;;;;5052596;28;20446;-64
2023/08/06 12:24:51;;;;;;;12.98;6.85;;;;;;;;;;5058185;28;20033;-64
2023/08/06 12:27:37;;;;;;;19.23;7.13;;;;;;;;;;5049032;28;20063;-63
2023/08/06 12:30:05;;;;;;;13.52;6.13;;;;;;;;;;5032571;28;20037;-65
2023/08/06 12:32:32;;;;;;;13.38;6.60;;;;;;;;;;5046595;28;20033;-64
2023/08/06 12:34:59;;;;;;;11.38;6.43;;;;;;;;;;5032925;28;20517;-64
2023/08/06 12:37:26;;;;;;;12.80;6.80;;;;;;;;;;5049879;28;20124;-64
2023/08/06 12:39:52;;;;;;;14.02;7.30;;;;;;;;;;5045211;28;20040;-65
2023/08/06 12:42:20;;;;;;;13.10;6.35;;;;;;;;;;5049823;28;20084;-62
2023/08/06 12:44:46;;;;;;;12.50;7.00;;;;;;;;;;5037721;28;20091;-60
2023/08/06 12:47:13;;;;;;;16.00;7.15;;;;;;;;;;5034602;28;20033;-61
2023/08/06 12:49:39;;;;;;;13.77;6.90;;;;;;;;;;5049713;28;20401;-61
2023/08/06 12:52:07;;;;;;;16.27;7.55;;;;;;;;;;5049425;28;20048;-62
2023/08/06 12:54:37;;;;;;;11.75;6.53;;;;;;;;;;5048080;28;20051;-63
2023/08/06 12:57:03;;;;;;;15.20;6.65;;;;;;;;;;5050411;28;20048;-60
2023/08/06 12:59:30;;;;;;;14.27;7.50;;;;;;;;;;5050861;28;20044;-57
2023/08/06 13:01:57;;;;;;;13.85;7.00;;;;;;;;;;5050328;28;20116;-63
2023/08/06 13:04:23;;;;;;;16.50;7.63;;;;;;;;;;5050068;28;20211;-65
2023/08/06 13:06:50;;;;;;;11.63;6.80;;;;;;;;;;5050315;28;20043;-62
2023/08/06 13:09:17;;;;;;;13.10;6.57;;;;;;;;;;5053011;28;20123;-64
2023/08/06 13:11:46;;;;;;;11.77;6.75;;;;;;;;;;5045923;28;20045;-62
2023/08/06 13:14:13;;;;;;;13.43;7.13;;;;;;;;;;5051313;28;20585;-63
2023/08/06 13:16:41;;;;;;;15.18;6.85;;;;;;;;;;5049518;28;20091;-64
2023/08/06 13:19:08;;;;;;;18.77;7.13;;;;;;;;;;5053581;28;20441;-62
2023/08/06 13:21:35;;;;;;;13.38;7.13;;;;;;;;;;5048447;28;20037;-62
2023/08/06 13:24:05;;;;;;;12.15;6.30;;;;;;;;;;5048759;28;20092;-64
2023/08/06 13:26:31;;;;;;;13.13;6.95;;;;;;;;;;5047761;28;20102;-64
2023/08/06 13:28:59;;;;;;;13.43;7.10;;;;;;;;;;5049687;28;20041;-62
2023/08/06 13:31:25;;;;;;;16.27;6.90;;;;;;;;;;5049110;28;20033;-62
